Claryville, NY (12725)

4:42 PM EDT on August 18, 2017 (GMT -0400)
Grahamsville, NY | | Change Station
Active Advisory: Severe Thunderstorm Watch

Elev 1017 ft 41.85 °N, 74.54 °W | Updated 3 seconds ago

Rain
Rain
74.8 °F
Feels Like 72 °F
N
0.0
Wind Variable Wind from WSW
Gusts 0.0 mph

Today
High -- | Low -- °F
--% Chance of Precip.
Yesterday
High -- | Low -- °F
Precip. -- in
Pressure 29.84 in
Visibility 2.5 miles
Clouds Few 400 ft
Scattered Clouds 3800 ft
Overcast 4700 ft
Heat Index 72 °F
Dew Point 74 °F
Humidity 97%
Rainfall 0.29 in
Snow Depth Not available.
6:09 AM 7:53 PM
Waning Crescent, 11% visible
SPECI KMSV 182031Z AUTO 20003KT 2 1/2SM RA BR FEW004 SCT038 OVC047 23/22 A2984 RMK AO2 P0002
Pressure 29.84 in
Visibility 2.5 miles
Clouds Few 400 ft
Scattered Clouds 3800 ft
Overcast 4700 ft
Heat Index 72 °F
Dew Point 74 °F
Humidity 97%
Rainfall 0.29 in
Snow Depth Not available.
6:09 AM 7:53 PM
Waning Crescent, 11% visible
SPECI KMSV 182031Z AUTO 20003KT 2 1/2SM RA BR FEW004 SCT038 OVC047 23/22 A2984 RMK AO2 P0002

Get Your Daily Forecast Email!

Thanks for signing up!

Be on the lookout for a verification email in your inbox.

You'll start receiving severe weather alerts in your inbox..

×

10-Day Weather Forecast

Almanac

Astronomy

Aug. 18, 2017 Rise Set
Actual Time
Civil Twilight
Nautical Twilight
Astronomical Twilight
Moon
Length of Visible Light
Length of Day
Tomorrow will be .
, % of the Moon is Illuminated

Today's Extremes

State Highs State Lows

Community

WunderPhotos

Category 6

Welcome to Category 6. This is the collective home for Weather Underground's featured writeups by Dr. Jeff Masters (right), Bob Henson (left), Chris Burt, and other regular contributors.

Nearby

Air Quality

  Air Quality AQ Index Pollutant
Not available.

Snow Depth

Station Depth Elevation

Earthquake Activity

City Distance Mag. Time & Date
Minimum magnitude displayed is 2.5.

Coastal Water Temperatures

Place Temperature

Stations

Nearby Weather Stations

Station Location Temp. Windchill Dew Point Humidity Wind Precip. Elev Updated Type
                   

Watches & Warnings

Severe Thunderstorm Watch
Issued: 4:24 PM EDT Aug. 18, 2017 – National Weather Service

Severe Thunderstorm Watch 455 remains in effect until 900 PM EDT

NY
. New York counties included are

Bronx Columbia Delaware
Dutchess Greene Kings
Nassau New York Orange
Putnam Queens Richmond
Rockland Sullivan Ulster
Westchester